Time;durP1;ratioP1;P1;durP2;ratioP2;P2;SDS_P1;SDS_P2;PMS_P1;PMS_P2;Temp;Humidity;BMP_temperature;BMP_pressure;BME280_temperature;BME280_humidity;BME280_pressure;Samples;Min_cycle;Max_cycle;Signal;HPM_P1;HPM_P2
2021/12/11 00:01:19;;;;;;;;;;;20.90;99.90;;;;;;5018024;28;1171;-54
2021/12/11 00:03:55;;;;;;;;;;;20.90;99.90;;;;;;5023941;28;959;-53
2021/12/11 00:06:23;;;;;;;;;;;20.90;99.90;;;;;;5019630;28;984;-53
2021/12/11 00:08:52;;;;;;;;;;;21.00;99.90;;;;;;5020534;28;872;-53
2021/12/11 00:11:18;;;;;;;;;;;21.00;99.90;;;;;;5020112;28;823;-53
2021/12/11 00:13:54;;;;;;;;;;;21.00;99.90;;;;;;5038469;28;1907;-53
2021/12/11 00:16:22;;;;;;;;;;;21.10;99.90;;;;;;5039028;28;848;-54
2021/12/11 00:18:51;;;;;;;;;;;21.10;99.90;;;;;;5038773;28;845;-54
2021/12/11 00:21:18;;;;;;;;;;;21.10;99.90;;;;;;5021067;28;829;-54
2021/12/11 00:23:52;;;;;;;;;;;21.10;99.90;;;;;;5037841;28;906;-54
2021/12/11 00:26:23;;;;;;;;;;;21.10;99.90;;;;;;5036142;28;930;-54
2021/12/11 00:28:52;;;;;;;;;;;21.10;99.90;;;;;;5019552;28;1406;-54
2021/12/11 00:31:20;;;;;;;;;;;21.10;99.90;;;;;;4986107;28;975;-54
2021/12/11 00:33:47;;;;;;;;;;;21.10;99.90;;;;;;5019977;28;1902;-54
2021/12/11 00:36:15;;;;;;;;;;;21.20;99.90;;;;;;5019582;28;893;-54
2021/12/11 00:38:47;;;;;;;;;;;21.20;99.90;;;;;;5020011;28;850;-53
2021/12/11 00:41:14;;;;;;;;;;;21.20;99.90;;;;;;5001980;28;954;-53
2021/12/11 00:43:44;;;;;;;;;;;21.20;99.90;;;;;;5020187;28;1511;-53
2021/12/11 00:46:22;;;;;;;;;;;21.10;99.90;;;;;;5016397;28;1665;-53
2021/12/11 00:48:48;;;;;;;;;;;21.20;99.90;;;;;;5019867;28;897;-53
2021/12/11 00:51:18;;;;;;;;;;;21.20;99.90;;;;;;5019332;28;841;-53
2021/12/11 00:53:47;;;;;;;;;;;21.20;99.90;;;;;;5002445;28;1915;-53
2021/12/11 00:56:16;;;;;;;;;;;21.20;99.90;;;;;;4985368;28;1181;-54
2021/12/11 00:58:43;;;;;;;;;;;21.20;99.90;;;;;;5018311;28;1097;-54
2021/12/11 01:01:12;;;;;;;;;;;21.20;99.90;;;;;;5001077;28;880;-54
2021/12/11 01:03:57;;;;;;;;;;;21.20;99.90;;;;;;5018297;28;908;-54
2021/12/11 01:06:23;;;;;;;;;;;21.20;99.90;;;;;;5037513;28;1084;-54
2021/12/11 01:09:11;;;;;;;;;;;21.30;99.90;;;;;;5037309;28;917;-54
2021/12/11 01:11:37;;;;;;;;;;;21.30;99.90;;;;;;5037583;28;864;-53
2021/12/11 01:14:42;;;;;;;;;;;21.30;99.90;;;;;;5038000;28;1906;-53
2021/12/11 01:17:12;;;;;;;;;;;21.30;99.90;;;;;;5013851;28;1091;-54
2021/12/11 01:19:40;;;;;;;;;;;21.30;99.90;;;;;;5012071;28;1397;-54
2021/12/11 01:22:31;;;;;;;;;;;21.30;99.90;;;;;;5001401;28;871;-54
2021/12/11 01:25:00;;;;;;;;;;;21.30;99.90;;;;;;5019084;28;1136;-54
2021/12/11 01:27:27;;;;;;;;;;;21.30;99.90;;;;;;5001118;28;904;-54
2021/12/11 01:29:56;;;;;;;;;;;21.20;99.90;;;;;;5019211;28;813;-54
2021/12/11 01:32:24;;;;;;;;;;;20.90;99.90;;;;;;5018735;28;1986;-54
2021/12/11 01:34:52;;;;;;;;;;;20.70;99.90;;;;;;5018587;28;991;-53
2021/12/11 01:37:18;;;;;;;;;;;20.80;99.90;;;;;;5018662;28;909;-54
2021/12/11 01:39:44;;;;;;;;;;;21.10;99.90;;;;;;5018175;28;790;-54
2021/12/11 01:42:16;;;;;;;;;;;21.30;99.90;;;;;;5018740;28;948;-53
2021/12/11 01:44:44;;;;;;;;;;;21.40;99.90;;;;;;5019108;28;806;-53
2021/12/11 01:47:15;;;;;;;;;;;21.50;99.90;;;;;;5017703;28;1328;-53
2021/12/11 01:49:44;;;;;;;;;;;21.60;99.90;;;;;;5000600;28;947;-54
2021/12/11 01:52:15;;;;;;;;;;;21.70;99.90;;;;;;5000565;28;1962;-53
2021/12/11 01:54:44;;;;;;;;;;;21.70;99.90;;;;;;5036625;28;846;-55
2021/12/11 01:57:17;;;;;;;;;;;21.80;99.90;;;;;;5000924;28;1333;-55
2021/12/11 01:59:46;;;;;;;;;;;21.90;99.90;;;;;;4998992;28;873;-56
2021/12/11 02:02:18;;;;;;;;;;;22.00;99.90;;;;;;4999395;28;883;-56
2021/12/11 02:04:47;;;;;;;;;;;21.60;99.90;;;;;;4994303;28;888;-54
2021/12/11 02:07:15;;;;;;;;;;;20.80;99.90;;;;;;4998478;28;905;-55
2021/12/11 02:09:57;;;;;;;;;;;20.20;99.90;;;;;;4994934;28;1120;-55
2021/12/11 02:12:33;;;;;;;;;;;19.70;99.90;;;;;;5002720;28;1982;-55
2021/12/11 02:15:02;;;;;;;;;;;19.30;99.90;;;;;;4999162;28;1270;-55
2021/12/11 02:17:47;;;;;;;;;;;19.00;99.90;;;;;;4994847;28;1124;-55
2021/12/11 02:20:20;;;;;;;;;;;18.70;99.90;;;;;;5004010;28;1319;-55
2021/12/11 02:22:48;;;;;;;;;;;18.50;99.90;;;;;;5001267;28;1303;-55
2021/12/11 02:25:21;;;;;;;;;;;18.30;99.90;;;;;;4999703;28;1209;-55
2021/12/11 02:27:54;;;;;;;;;;;18.20;99.90;;;;;;4995150;28;1263;-55
2021/12/11 02:30:30;;;;;;;;;;;18.00;99.90;;;;;;4996894;28;1029;-55
2021/12/11 02:33:20;;;;;;;;;;;17.80;99.90;;;;;;4998266;28;1911;-55
2021/12/11 02:35:46;;;;;;;;;;;17.70;99.90;;;;;;4911287;28;1074;-54
2021/12/11 02:38:28;;;;;;;;;;;17.60;99.90;;;;;;4939557;29;997;-54
2021/12/11 02:41:00;;;;;;;;;;;17.50;99.90;;;;;;4909409;29;1267;-54
2021/12/11 02:43:57;;;;;;;;;;;17.40;99.90;;;;;;4918597;29;1017;-54
2021/12/11 02:46:27;;;;;;;;;;;17.30;99.90;;;;;;4899923;29;1353;-53
2021/12/11 02:49:03;;;;;;;;;;;17.10;99.90;;;;;;4918822;29;803;-54
2021/12/11 02:51:39;;;;;;;;;;;17.00;99.90;;;;;;4902942;29;995;-54
2021/12/11 02:54:24;;;;;;;;;;;16.90;99.90;;;;;;4918524;29;1948;-54
2021/12/11 02:56:53;;;;;;;;;;;16.70;99.90;;;;;;4913153;29;1345;-54
2021/12/11 02:59:26;;;;;;;;;;;16.70;99.90;;;;;;4912582;29;1009;-54
2021/12/11 03:02:12;;;;;;;;;;;16.60;99.90;;;;;;4918099;29;937;-53
2021/12/11 03:04:48;;;;;;;;;;;16.50;99.90;;;;;;4918049;29;894;-53
2021/12/11 03:07:16;;;;;;;;;;;16.40;99.90;;;;;;4918289;29;1276;-53
2021/12/11 03:10:03;;;;;;;;;;;16.40;99.90;;;;;;4930106;29;1029;-54
2021/12/11 03:12:29;;;;;;;;;;;16.30;99.90;;;;;;4956961;28;1915;-54
2021/12/11 03:14:55;;;;;;;;;;;16.20;99.90;;;;;;4997608;28;841;-54
2021/12/11 03:17:22;;;;;;;;;;;16.20;99.90;;;;;;4997680;28;873;-54
2021/12/11 03:19:52;;;;;;;;;;;16.10;99.90;;;;;;4997620;28;845;-54
2021/12/11 03:22:20;;;;;;;;;;;16.00;99.90;;;;;;5012414;28;1269;-54
2021/12/11 03:24:46;;;;;;;;;;;16.00;99.90;;;;;;4996508;28;817;-54
2021/12/11 03:27:13;;;;;;;;;;;15.90;99.90;;;;;;4997807;28;888;-54
2021/12/11 03:29:40;;;;;;;;;;;15.90;99.90;;;;;;4997479;28;806;-54
2021/12/11 03:32:08;;;;;;;;;;;15.80;99.90;;;;;;4996561;28;865;-54
2021/12/11 03:34:34;;;;;;;;;;;15.80;99.90;;;;;;4997636;28;785;-54
2021/12/11 03:37:01;;;;;;;;;;;15.70;99.90;;;;;;4997198;28;833;-54
2021/12/11 03:39:31;;;;;;;;;;;15.70;99.90;;;;;;4980576;28;986;-54
2021/12/11 03:42:01;;;;;;;;;;;15.60;99.90;;;;;;4997618;28;928;-53
2021/12/11 03:44:33;;;;;;;;;;;15.60;99.90;;;;;;4994845;28;1306;-54
2021/12/11 03:47:00;;;;;;;;;;;15.50;99.90;;;;;;4997640;28;910;-54
2021/12/11 03:49:26;;;;;;;;;;;15.50;99.90;;;;;;4997484;28;895;-53
2021/12/11 03:51:54;;;;;;;;;;;15.40;99.90;;;;;;4997312;28;936;-53
2021/12/11 03:54:25;;;;;;;;;;;15.30;99.90;;;;;;4997639;28;1970;-54
2021/12/11 03:56:51;;;;;;;;;;;15.30;99.90;;;;;;5007954;28;1036;-53
2021/12/11 03:59:17;;;;;;;;;;;15.20;99.90;;;;;;5017030;28;948;-54
2021/12/11 04:01:57;;;;;;;;;;;15.20;99.90;;;;;;5015487;28;921;-54
2021/12/11 04:04:25;;;;;;;;;;;15.10;99.90;;;;;;4999256;28;930;-54
2021/12/11 04:06:51;;;;;;;;;;;15.10;99.90;;;;;;5016842;28;848;-53
2021/12/11 04:09:19;;;;;;;;;;;15.10;99.90;;;;;;5016255;28;906;-55
2021/12/11 04:11:47;;;;;;;;;;;15.10;99.90;;;;;;5016463;28;873;-54
2021/12/11 04:14:16;;;;;;;;;;;15.00;99.90;;;;;;5014961;28;1906;-53
2021/12/11 04:16:42;;;;;;;;;;;15.00;99.90;;;;;;5017075;28;920;-54
2021/12/11 04:19:08;;;;;;;;;;;15.00;99.90;;;;;;5034900;28;900;-54
2021/12/11 04:21:36;;;;;;;;;;;15.00;99.90;;;;;;5034609;28;813;-53
2021/12/11 04:24:04;;;;;;;;;;;15.10;99.90;;;;;;5034523;28;924;-53
2021/12/11 04:26:31;;;;;;;;;;;15.10;99.90;;;;;;5030352;28;1000;-53
2021/12/11 04:29:00;;;;;;;;;;;15.10;99.90;;;;;;5015523;28;1338;-53
2021/12/11 04:31:28;;;;;;;;;;;15.10;99.90;;;;;;5033836;28;1301;-54
2021/12/11 04:33:57;;;;;;;;;;;15.10;99.90;;;;;;5034279;28;1973;-53
2021/12/11 04:36:26;;;;;;;;;;;15.10;99.90;;;;;;5033423;28;868;-53
2021/12/11 04:38:54;;;;;;;;;;;15.10;99.90;;;;;;4998965;28;900;-54
2021/12/11 04:41:25;;;;;;;;;;;15.10;99.90;;;;;;4998023;28;954;-54
2021/12/11 04:43:55;;;;;;;;;;;15.10;99.90;;;;;;5035356;28;1002;-53
2021/12/11 04:46:21;;;;;;;;;;;15.10;99.90;;;;;;5038498;28;891;-54
2021/12/11 04:51:45;;;;;;;;;;;15.10;99.90;;;;;;5017212;28;887;-54
2021/12/11 04:57:23;;;;;;;;;;;15.10;99.90;;;;;;5034514;28;1295;-53
2021/12/11 05:07:34;;;;;;;;;;;14.90;99.90;;;;;;5019421;28;861;-53
2021/12/11 05:10:21;;;;;;;;;;;14.80;99.90;;;;;;5033962;28;910;-54
2021/12/11 05:12:49;;;;;;;;;;;14.80;99.90;;;;;;5019125;28;1902;-54
2021/12/11 05:15:45;;;;;;;;;;;14.80;99.90;;;;;;5017875;28;1170;-53
2021/12/11 05:18:14;;;;;;;;;;;14.70;99.90;;;;;;5001830;28;1278;-54
2021/12/11 05:20:41;;;;;;;;;;;14.70;99.90;;;;;;5001213;28;912;-53
2021/12/11 05:23:08;;;;;;;;;;;14.70;99.90;;;;;;5018433;28;845;-53
2021/12/11 05:25:34;;;;;;;;;;;14.60;99.90;;;;;;5037851;28;932;-53
2021/12/11 05:28:02;;;;;;;;;;;14.60;99.90;;;;;;5022332;28;782;-54
2021/12/11 05:30:31;;;;;;;;;;;14.60;99.90;;;;;;5019100;28;909;-53
2021/12/11 05:32:59;;;;;;;;;;;14.50;99.90;;;;;;5037537;28;1906;-53
2021/12/11 05:35:30;;;;;;;;;;;14.50;99.90;;;;;;5018935;28;826;-54
2021/12/11 05:37:57;;;;;;;;;;;14.50;99.90;;;;;;4976648;28;1025;-52
2021/12/11 05:40:24;;;;;;;;;;;14.50;99.90;;;;;;5018759;28;841;-52
2021/12/11 05:42:54;;;;;;;;;;;14.50;99.90;;;;;;5013610;28;886;-52
2021/12/11 05:45:20;;;;;;;;;;;14.50;99.90;;;;;;5018879;28;813;-52
2021/12/11 05:47:48;;;;;;;;;;;14.50;99.90;;;;;;5018329;28;912;-52
2021/12/11 05:50:17;;;;;;;;;;;14.50;99.90;;;;;;5019073;28;865;-52
2021/12/11 05:52:43;;;;;;;;;;;14.50;99.90;;;;;;5017618;28;2000;-51
2021/12/11 05:55:13;;;;;;;;;;;14.40;99.90;;;;;;5017807;28;794;-51
2021/12/11 05:57:41;;;;;;;;;;;14.40;99.90;;;;;;5017863;28;1173;-53
2021/12/11 06:00:10;;;;;;;;;;;14.40;99.90;;;;;;5018119;28;1337;-52
2021/12/11 06:02:39;;;;;;;;;;;14.40;99.90;;;;;;5018124;28;869;-52
2021/12/11 06:05:06;;;;;;;;;;;14.40;99.90;;;;;;5018805;28;884;-52
2021/12/11 06:07:33;;;;;;;;;;;14.40;99.90;;;;;;5018477;28;861;-52
2021/12/11 06:10:03;;;;;;;;;;;14.40;99.90;;;;;;5018257;28;880;-53
2021/12/11 06:12:29;;;;;;;;;;;14.40;99.90;;;;;;5018664;28;869;-52
2021/12/11 06:14:58;;;;;;;;;;;14.40;99.90;;;;;;5018461;28;1899;-52
2021/12/11 06:17:28;;;;;;;;;;;14.50;99.90;;;;;;5018264;28;873;-51
2021/12/11 06:19:57;;;;;;;;;;;14.50;99.90;;;;;;5018553;28;813;-52
2021/12/11 06:22:25;;;;;;;;;;;14.50;99.90;;;;;;5017585;28;857;-52
2021/12/11 06:24:53;;;;;;;;;;;14.50;99.90;;;;;;5026184;28;1346;-52
2021/12/11 06:27:21;;;;;;;;;;;14.50;99.90;;;;;;5039712;28;1316;-53
2021/12/11 06:29:48;;;;;;;;;;;14.50;99.90;;;;;;5021666;28;1082;-52
2021/12/11 06:32:14;;;;;;;;;;;14.50;99.90;;;;;;5000183;28;894;-52
2021/12/11 06:34:40;;;;;;;;;;;14.50;99.90;;;;;;5000234;28;1903;-52
2021/12/11 06:37:08;;;;;;;;;;;14.50;99.90;;;;;;5018006;28;848;-52
2021/12/11 06:39:34;;;;;;;;;;;14.50;99.90;;;;;;4983878;28;873;-52
2021/12/11 06:42:02;;;;;;;;;;;14.50;99.90;;;;;;5014249;28;873;-53
2021/12/11 06:44:29;;;;;;;;;;;14.50;99.90;;;;;;5016953;28;1013;-53
2021/12/11 06:47:01;;;;;;;;;;;14.50;99.90;;;;;;5017532;28;940;-54
2021/12/11 06:49:28;;;;;;;;;;;14.50;99.90;;;;;;5017308;28;1041;-53
2021/12/11 06:51:54;;;;;;;;;;;14.50;99.90;;;;;;5017572;28;829;-51
2021/12/11 06:54:25;;;;;;;;;;;14.50;99.90;;;;;;5017238;28;1902;-53
2021/12/11 06:56:51;;;;;;;;;;;14.50;99.90;;;;;;5017182;28;1145;-54
2021/12/11 06:59:17;;;;;;;;;;;14.50;99.90;;;;;;5000622;28;845;-51
2021/12/11 07:01:49;;;;;;;;;;;14.50;99.90;;;;;;5017740;28;822;-51
2021/12/11 07:04:16;;;;;;;;;;;14.50;99.90;;;;;;5017039;28;1120;-51
2021/12/11 07:06:47;;;;;;;;;;;14.50;99.90;;;;;;5017483;28;776;-54
2021/12/11 07:09:13;;;;;;;;;;;14.50;99.90;;;;;;5016581;28;918;-54
2021/12/11 07:11:42;;;;;;;;;;;14.50;99.90;;;;;;5016710;28;885;-53
2021/12/11 07:14:08;;;;;;;;;;;14.40;99.90;;;;;;5017196;28;1914;-53
2021/12/11 07:16:36;;;;;;;;;;;14.40;99.90;;;;;;5016978;28;899;-53
2021/12/11 07:19:03;;;;;;;;;;;14.40;99.90;;;;;;5032232;28;960;-53
2021/12/11 07:21:29;;;;;;;;;;;14.30;99.90;;;;;;5032326;28;988;-53
2021/12/11 07:23:56;;;;;;;;;;;14.30;99.90;;;;;;5015813;28;1082;-53
2021/12/11 07:26:29;;;;;;;;;;;14.30;99.90;;;;;;4983008;28;1511;-53
2021/12/11 07:28:59;;;;;;;;;;;14.30;99.90;;;;;;4999927;28;1046;-53
2021/12/11 07:31:26;;;;;;;;;;;14.20;99.90;;;;;;4999449;28;966;-53
2021/12/11 07:33:52;;;;;;;;;;;14.20;99.90;;;;;;5016218;28;1973;-53
2021/12/11 07:36:39;;;;;;;;;;;14.20;99.90;;;;;;4989067;28;1097;-53
2021/12/11 07:39:08;;;;;;;;;;;14.20;99.90;;;;;;5016923;28;806;-53
2021/12/11 07:41:34;;;;;;;;;;;14.20;99.90;;;;;;5016048;28;995;-53
2021/12/11 07:44:02;;;;;;;;;;;14.20;99.90;;;;;;5016539;28;927;-53
2021/12/11 07:46:32;;;;;;;;;;;14.30;99.90;;;;;;4999424;28;927;-53
2021/12/11 07:48:58;;;;;;;;;;;14.30;99.90;;;;;;5016507;28;900;-53
2021/12/11 07:51:32;;;;;;;;;;;14.30;99.90;;;;;;4999354;28;921;-53
2021/12/11 07:53:59;;;;;;;;;;;14.30;99.90;;;;;;5016913;28;1955;-53
2021/12/11 07:56:28;;;;;;;;;;;14.40;99.90;;;;;;5029109;28;1398;-53
2021/12/11 07:58:59;;;;;;;;;;;14.40;99.90;;;;;;5013135;28;972;-53
2021/12/11 08:01:27;;;;;;;;;;;14.40;99.90;;;;;;5027760;28;889;-53
2021/12/11 08:03:57;;;;;;;;;;;14.40;99.90;;;;;;5016726;28;872;-53
2021/12/11 08:06:23;;;;;;;;;;;14.40;99.90;;;;;;4999444;28;824;-53
2021/12/11 08:08:51;;;;;;;;;;;14.40;99.90;;;;;;5015215;28;902;-53
2021/12/11 08:11:19;;;;;;;;;;;14.40;99.90;;;;;;4999025;28;818;-53
2021/12/11 08:13:47;;;;;;;;;;;14.40;99.90;;;;;;5016526;28;1985;-53
2021/12/11 08:16:15;;;;;;;;;;;14.30;99.90;;;;;;5016968;28;1248;-53
2021/12/11 08:18:42;;;;;;;;;;;14.30;99.90;;;;;;5017720;28;890;-53
2021/12/11 08:21:09;;;;;;;;;;;14.30;99.90;;;;;;5019062;28;831;-53
2021/12/11 08:23:46;;;;;;;;;;;14.30;99.90;;;;;;5004140;28;856;-53
2021/12/11 08:26:20;;;;;;;;;;;14.30;99.90;;;;;;5020149;28;887;-53
2021/12/11 08:28:50;;;;;;;;;;;14.30;99.90;;;;;;5019700;28;924;-53
2021/12/11 08:31:18;;;;;;;;;;;14.20;99.90;;;;;;5002753;28;851;-53
2021/12/11 08:33:47;;;;;;;;;;;14.20;99.90;;;;;;5020272;28;1983;-53
2021/12/11 08:36:13;;;;;;;;;;;14.20;99.90;;;;;;5021089;28;1217;-53
2021/12/11 08:38:41;;;;;;;;;;;14.10;99.90;;;;;;5020246;28;1077;-53
2021/12/11 08:41:09;;;;;;;;;;;14.10;99.90;;;;;;5008503;28;1285;-53
2021/12/11 08:43:37;;;;;;;;;;;14.10;99.90;;;;;;5016997;28;806;-53
2021/12/11 08:46:15;;;;;;;;;;;14.10;99.90;;;;;;5000225;28;854;-53
2021/12/11 08:48:44;;;;;;;;;;;14.10;99.90;;;;;;4988684;28;923;-53
2021/12/11 08:51:12;;;;;;;;;;;14.10;99.90;;;;;;5019858;28;1013;-53
2021/12/11 08:53:38;;;;;;;;;;;14.10;99.90;;;;;;5019735;28;1883;-53
2021/12/11 08:56:08;;;;;;;;;;;14.10;99.90;;;;;;5019282;28;1154;-53
2021/12/11 08:58:36;;;;;;;;;;;14.10;99.90;;;;;;5019745;28;955;-53
2021/12/11 09:01:24;;;;;;;;;;;14.10;99.90;;;;;;5019665;28;861;-53
2021/12/11 09:03:54;;;;;;;;;;;14.20;99.90;;;;;;4939591;29;1129;-53
2021/12/11 09:06:27;;;;;;;;;;;14.20;99.90;;;;;;4924521;29;970;-53
2021/12/11 09:09:03;;;;;;;;;;;14.20;99.90;;;;;;4940119;29;1070;-53
2021/12/11 09:11:36;;;;;;;;;;;14.20;99.90;;;;;;4942175;29;1132;-53
2021/12/11 09:14:14;;;;;;;;;;;14.20;99.90;;;;;;4893036;29;1919;-53
2021/12/11 09:16:47;;;;;;;;;;;14.30;99.90;;;;;;4939988;29;1140;-53
2021/12/11 09:19:13;;;;;;;;;;;14.30;99.90;;;;;;4939481;29;1012;-53
2021/12/11 09:21:44;;;;;;;;;;;14.30;99.90;;;;;;4920923;29;1082;-53
2021/12/11 09:24:13;;;;;;;;;;;14.40;99.90;;;;;;4937517;29;901;-53
2021/12/11 09:26:53;;;;;;;;;;;14.40;99.90;;;;;;4939816;29;928;-52
2021/12/11 09:29:30;;;;;;;;;;;14.50;99.90;;;;;;4940065;29;866;-53
2021/12/11 09:31:59;;;;;;;;;;;14.50;99.90;;;;;;4908407;29;971;-53
2021/12/11 09:34:29;;;;;;;;;;;14.50;99.90;;;;;;4939898;29;1907;-53
2021/12/11 09:36:58;;;;;;;;;;;14.50;99.90;;;;;;4924184;29;1027;-53
2021/12/11 09:39:30;;;;;;;;;;;14.50;99.90;;;;;;4939970;29;976;-54
2021/12/11 09:41:56;;;;;;;;;;;14.60;99.90;;;;;;4997611;28;1058;-56
2021/12/11 09:44:29;;;;;;;;;;;14.60;99.90;;;;;;5034964;28;869;-55
2021/12/11 09:47:01;;;;;;;;;;;14.70;99.90;;;;;;5025333;28;1120;-53
2021/12/11 09:49:31;;;;;;;;;;;14.70;99.90;;;;;;5034907;28;947;-52
2021/12/11 09:52:23;;;;;;;;;;;14.80;99.90;;;;;;5022824;28;771;-55
2021/12/11 09:54:56;;;;;;;;;;;14.90;99.90;;;;;;5035724;28;1906;-55
2021/12/11 09:57:24;;;;;;;;;;;15.00;99.90;;;;;;5026120;28;1034;-56
2021/12/11 09:59:52;;;;;;;;;;;15.10;99.90;;;;;;5018867;28;1023;-53
2021/12/11 10:02:25;;;;;;;;;;;15.20;99.90;;;;;;5018868;28;824;-53
2021/12/11 10:04:59;;;;;;;;;;;15.20;99.90;;;;;;5018746;28;861;-53
2021/12/11 10:07:35;;;;;;;;;;;15.30;99.90;;;;;;5018629;28;860;-55
2021/12/11 10:10:23;;;;;;;;;;;15.40;99.90;;;;;;5018267;28;890;-55
2021/12/11 10:12:55;;;;;;;;;;;15.40;99.90;;;;;;5000866;28;902;-56
2021/12/11 10:15:28;;;;;;;;;;;15.50;99.90;;;;;;5028328;28;1914;-55
2021/12/11 10:17:57;;;;;;;;;;;15.50;99.90;;;;;;5036421;28;938;-55
2021/12/11 10:20:28;;;;;;;;;;;15.60;99.90;;;;;;5036256;28;897;-55
2021/12/11 10:22:55;;;;;;;;;;;15.60;99.90;;;;;;5036336;28;825;-55
2021/12/11 10:25:22;;;;;;;;;;;15.70;99.90;;;;;;5036056;28;817;-55
2021/12/11 10:27:48;;;;;;;;;;;15.70;99.90;;;;;;5005571;28;1711;-56
2021/12/11 10:30:18;;;;;;;;;;;15.80;99.90;;;;;;5018406;28;932;-56
2021/12/11 10:32:45;;;;;;;;;;;15.80;99.90;;;;;;5018970;28;1062;-53
2021/12/11 10:35:14;;;;;;;;;;;15.80;99.90;;;;;;5032255;28;1961;-53
2021/12/11 10:37:42;;;;;;;;;;;15.80;99.90;;;;;;5035668;28;1034;-53
2021/12/11 10:40:14;;;;;;;;;;;15.90;99.90;;;;;;5031532;28;862;-53
2021/12/11 10:42:41;;;;;;;;;;;15.90;99.90;;;;;;4980185;28;917;-53
2021/12/11 10:45:09;;;;;;;;;;;15.90;99.90;;;;;;5018589;28;1271;-53
2021/12/11 10:47:39;;;;;;;;;;;15.90;99.90;;;;;;5036168;28;864;-53
2021/12/11 10:50:24;;;;;;;;;;;16.00;99.90;;;;;;5035815;28;1007;-53
2021/12/11 10:52:50;;;;;;;;;;;16.00;99.90;;;;;;5035712;28;802;-53
2021/12/11 10:55:20;;;;;;;;;;;16.00;99.90;;;;;;5001057;28;1879;-53
2021/12/11 10:57:46;;;;;;;;;;;16.10;99.90;;;;;;5022189;28;1019;-53
2021/12/11 11:00:19;;;;;;;;;;;16.10;99.90;;;;;;5017708;28;1017;-53
2021/12/11 11:02:46;;;;;;;;;;;16.10;99.90;;;;;;4999608;28;1421;-53
2021/12/11 11:05:14;;;;;;;;;;;16.20;99.90;;;;;;5017516;28;822;-53
2021/12/11 11:07:43;;;;;;;;;;;16.20;99.90;;;;;;5017370;28;925;-54
2021/12/11 11:10:18;;;;;;;;;;;16.20;99.90;;;;;;5017102;28;888;-53
2021/12/11 11:12:47;;;;;;;;;;;16.20;99.90;;;;;;4999172;28;926;-53
2021/12/11 11:15:13;;;;;;;;;;;16.30;99.90;;;;;;5017496;28;1898;-55
2021/12/11 11:17:41;;;;;;;;;;;16.30;99.90;;;;;;4999620;28;947;-55
2021/12/11 11:20:10;;;;;;;;;;;16.40;99.90;;;;;;5017543;28;805;-56
2021/12/11 11:22:40;;;;;;;;;;;16.40;99.90;;;;;;4999489;28;903;-54
2021/12/11 11:25:26;;;;;;;;;;;16.50;99.90;;;;;;4999969;28;793;-55
2021/12/11 11:27:57;;;;;;;;;;;16.50;99.90;;;;;;5016730;28;932;-55
2021/12/11 11:30:28;;;;;;;;;;;16.60;99.90;;;;;;5031699;28;1056;-52
2021/12/11 11:32:56;;;;;;;;;;;16.60;99.90;;;;;;5019440;28;1236;-54
2021/12/11 11:35:54;;;;;;;;;;;16.30;99.90;;;;;;5016164;28;1215;-53
2021/12/11 11:38:22;;;;;;;;;;;15.20;99.90;;;;;;5013356;28;1075;-54
2021/12/11 11:40:53;;;;;;;;;;;14.40;99.90;;;;;;5015254;28;1342;-54
2021/12/11 11:43:20;;;;;;;;;;;14.50;99.90;;;;;;4983317;28;942;-55
2021/12/11 11:45:52;;;;;;;;;;;14.90;99.90;;;;;;5016281;28;956;-55
2021/12/11 11:48:22;;;;;;;;;;;15.30;99.90;;;;;;5017225;28;881;-55
2021/12/11 11:50:50;;;;;;;;;;;15.70;99.90;;;;;;5023968;28;1079;-55
2021/12/11 11:53:19;;;;;;;;;;;16.00;99.90;;;;;;5025834;28;1162;-55
2021/12/11 11:55:47;;;;;;;;;;;16.30;99.90;;;;;;4986689;28;1903;-55
2021/12/11 11:58:16;;;;;;;;;;;16.60;99.90;;;;;;5002924;28;1431;-55
2021/12/11 12:00:45;;;;;;;;;;;16.80;99.90;;;;;;4987021;28;930;-55
2021/12/11 12:03:13;;;;;;;;;;;16.90;99.90;;;;;;5020213;28;1012;-55
2021/12/11 12:05:41;;;;;;;;;;;17.00;99.90;;;;;;5020637;28;909;-53
2021/12/11 12:08:08;;;;;;;;;;;17.20;99.90;;;;;;5032449;28;1182;-53
2021/12/11 12:10:35;;;;;;;;;;;17.40;99.90;;;;;;5020195;28;1276;-54
2021/12/11 12:13:07;;;;;;;;;;;17.50;99.90;;;;;;5020014;28;1355;-53
2021/12/11 12:15:35;;;;;;;;;;;17.60;99.90;;;;;;5022964;28;1961;-52
2021/12/11 12:18:04;;;;;;;;;;;17.80;99.90;;;;;;5003556;28;860;-52
2021/12/11 12:20:32;;;;;;;;;;;18.10;99.90;;;;;;5020538;28;861;-55
2021/12/11 12:22:59;;;;;;;;;;;18.30;99.90;;;;;;5020652;28;802;-55
2021/12/11 12:25:25;;;;;;;;;;;18.30;99.90;;;;;;5019751;28;1057;-54
2021/12/11 12:27:51;;;;;;;;;;;18.20;99.90;;;;;;5019480;28;1156;-56
2021/12/11 12:30:27;;;;;;;;;;;18.10;99.90;;;;;;5018589;28;933;-56
2021/12/11 12:32:55;;;;;;;;;;;18.20;99.90;;;;;;5023720;28;1060;-55
2021/12/11 12:35:23;;;;;;;;;;;18.20;99.90;;;;;;5024394;28;1902;-55
2021/12/11 12:37:50;;;;;;;;;;;18.30;99.90;;;;;;5001517;28;1203;-55
2021/12/11 12:40:27;;;;;;;;;;;18.30;99.90;;;;;;5030546;28;1368;-55
2021/12/11 12:43:08;;;;;;;;;;;18.40;99.90;;;;;;5035300;28;1063;-55
2021/12/11 12:45:42;;;;;;;;;;;18.30;99.90;;;;;;5021378;28;1043;-55
2021/12/11 12:48:10;;;;;;;;;;;18.30;99.90;;;;;;5018703;28;1093;-56
2021/12/11 12:50:37;;;;;;;;;;;18.20;99.90;;;;;;5003589;28;1387;-56
2021/12/11 12:53:04;;;;;;;;;;;18.10;99.90;;;;;;5021260;28;1147;-55
2021/12/11 12:55:49;;;;;;;;;;;18.10;99.90;;;;;;4985500;28;1968;-56
2021/12/11 12:58:31;;;;;;;;;;;18.10;99.90;;;;;;5019360;28;1276;-55
2021/12/11 13:01:03;;;;;;;;;;;18.10;99.90;;;;;;5014898;28;1155;-55
2021/12/11 13:03:34;;;;;;;;;;;18.10;99.90;;;;;;5022116;28;1186;-55
2021/12/11 13:06:04;;;;;;;;;;;18.10;99.90;;;;;;5023083;28;1422;-55
2021/12/11 13:08:40;;;;;;;;;;;18.10;99.90;;;;;;5025306;28;1104;-55
2021/12/11 13:11:14;;;;;;;;;;;18.10;99.90;;;;;;5019467;28;948;-55
2021/12/11 13:13:40;;;;;;;;;;;18.10;99.90;;;;;;5014633;28;1913;-55
2021/12/11 13:16:12;;;;;;;;;;;18.10;99.90;;;;;;5024885;28;1146;-55
2021/12/11 13:18:44;;;;;;;;;;;18.10;99.90;;;;;;5020441;28;887;-55
2021/12/11 13:21:11;;;;;;;;;;;18.10;99.90;;;;;;5003440;28;998;-55
2021/12/11 13:23:39;;;;;;;;;;;18.10;99.90;;;;;;5019469;28;954;-55
2021/12/11 13:26:08;;;;;;;;;;;18.20;99.90;;;;;;5022674;28;920;-56
2021/12/11 13:28:37;;;;;;;;;;;18.10;99.90;;;;;;5017928;28;876;-56
2021/12/11 13:31:07;;;;;;;;;;;18.20;99.90;;;;;;5001730;28;915;-57
2021/12/11 13:33:33;;;;;;;;;;;18.20;99.90;;;;;;5018778;28;1203;-57
2021/12/11 13:36:02;;;;;;;;;;;18.20;99.90;;;;;;5018735;28;1906;-56
2021/12/11 13:38:29;;;;;;;;;;;18.30;99.90;;;;;;5019028;28;888;-56
2021/12/11 13:41:06;;;;;;;;;;;18.30;99.90;;;;;;5018896;28;905;-56
2021/12/11 13:43:33;;;;;;;;;;;18.30;99.90;;;;;;5032924;28;1032;-56
2021/12/11 13:45:59;;;;;;;;;;;18.30;99.90;;;;;;5027526;28;1080;-56
2021/12/11 13:48:27;;;;;;;;;;;18.40;99.90;;;;;;5030263;28;1092;-56
2021/12/11 13:51:04;;;;;;;;;;;18.30;99.90;;;;;;5052303;28;1006;-56
2021/12/11 13:53:31;;;;;;;;;;;18.30;99.90;;;;;;4985946;28;1641;-56
2021/12/11 13:55:59;;;;;;;;;;;18.30;99.90;;;;;;5017799;28;1977;-55
2021/12/11 13:58:26;;;;;;;;;;;18.30;99.90;;;;;;5033693;28;1070;-56
2021/12/11 14:00:58;;;;;;;;;;;18.30;99.90;;;;;;5001206;28;1033;-56
2021/12/11 14:03:28;;;;;;;;;;;18.20;99.90;;;;;;5017931;28;902;-56
2021/12/11 14:05:58;;;;;;;;;;;18.20;99.90;;;;;;4984499;28;950;-56
2021/12/11 14:08:25;;;;;;;;;;;18.30;99.90;;;;;;5018681;28;822;-56
2021/12/11 14:10:51;;;;;;;;;;;18.30;99.90;;;;;;5017223;28;1194;-56
2021/12/11 14:13:18;;;;;;;;;;;18.30;99.90;;;;;;5017714;28;897;-56
2021/12/11 14:15:46;;;;;;;;;;;18.40;99.90;;;;;;5017068;28;1985;-56
2021/12/11 14:18:14;;;;;;;;;;;18.40;99.90;;;;;;5017843;28;1259;-56
2021/12/11 14:20:40;;;;;;;;;;;18.50;99.90;;;;;;5000796;28;986;-56
2021/12/11 14:23:09;;;;;;;;;;;18.50;99.90;;;;;;5018280;28;872;-56
2021/12/11 14:25:37;;;;;;;;;;;18.50;99.90;;;;;;5011072;28;911;-56
2021/12/11 14:28:05;;;;;;;;;;;18.50;99.90;;;;;;5032509;28;987;-60
2021/12/11 14:30:35;;;;;;;;;;;18.50;99.90;;;;;;4982707;28;980;-55
2021/12/11 14:33:01;;;;;;;;;;;18.50;99.90;;;;;;5016479;28;1689;-56
2021/12/11 14:35:30;;;;;;;;;;;18.60;99.90;;;;;;5017872;28;1910;-57
2021/12/11 14:37:56;;;;;;;;;;;18.60;99.90;;;;;;5016186;28;849;-54
2021/12/11 14:40:28;;;;;;;;;;;18.60;99.90;;;;;;5017664;28;945;-53
2021/12/11 14:42:55;;;;;;;;;;;18.70;99.90;;;;;;4998934;28;897;-53
2021/12/11 14:45:24;;;;;;;;;;;18.70;99.90;;;;;;5017803;28;857;-54
2021/12/11 14:47:52;;;;;;;;;;;18.80;99.90;;;;;;5017352;28;980;-54
2021/12/11 14:50:22;;;;;;;;;;;18.80;99.90;;;;;;4960923;28;957;-57
2021/12/11 14:52:48;;;;;;;;;;;18.80;99.90;;;;;;4976457;28;887;-54
2021/12/11 14:55:18;;;;;;;;;;;18.90;99.90;;;;;;4976761;28;1898;-53
2021/12/11 14:57:47;;;;;;;;;;;18.90;99.90;;;;;;4976318;28;1190;-54
2021/12/11 15:00:14;;;;;;;;;;;18.90;99.90;;;;;;4976844;28;1056;-54
2021/12/11 15:02:46;;;;;;;;;;;18.90;99.90;;;;;;4976796;28;879;-54
2021/12/11 15:05:16;;;;;;;;;;;19.00;99.90;;;;;;4976844;28;912;-54
2021/12/11 15:07:44;;;;;;;;;;;18.90;99.90;;;;;;4944590;28;953;-54
2021/12/11 15:10:13;;;;;;;;;;;19.00;99.90;;;;;;4961287;28;1120;-54